Point Of Rocks, Wyoming
Current Conditions -  °F | °C
As of 3:54 AM on Monday 20 Oct 2014 (Local Time) from KRKS Reporting Station
Clear Clear  
Wind Chill: 39°   Ceiling: Unl
Heat Index: 42°   Visibility: 10mi
Dew Point: 28°   Wind: 5mph
Humidity: 58%   Direction: 80°E
Pressure: 30.18"   Gusts: NA
Location:  41.68°N, 108.79°W
Report Text: KRKS 200954Z AUTO 08004KT 10SM CLR 06/M02 A3018 RMK AO2 SLP165 T00561022
Loading
Personal Weather Stations






























Interactive Weather Map
Tropical Storm Tracking
New forecast layout! Learn more

10-Day Weather Forecast

Advertisements
Track Severe Weather on mobile